sensor_id;sensor_type;location;lat;lon;timestamp;P1;P2;P0
33948;PMS7003;20229;49.856;19.030;2023-11-19T00:02:54;21;17;11
33948;PMS7003;20229;49.856;19.030;2023-11-19T00:08:08;18;14;9
33948;PMS7003;20229;49.856;19.030;2023-11-19T00:13:22;15;13;8
33948;PMS7003;20229;49.856;19.030;2023-11-19T00:18:37;15;13;8
33948;PMS7003;20229;49.856;19.030;2023-11-19T00:23:52;12;11;7
33948;PMS7003;20229;49.856;19.030;2023-11-19T00:29:06;15;11;8
33948;PMS7003;20229;49.856;19.030;2023-11-19T00:34:20;12;11;7
33948;PMS7003;20229;49.856;19.030;2023-11-19T00:39:36;16;14;9
33948;PMS7003;20229;49.856;19.030;2023-11-19T00:44:50;19;17;10
33948;PMS7003;20229;49.856;19.030;2023-11-19T00:50:05;15;12;8
33948;PMS7003;20229;49.856;19.030;2023-11-19T00:55:23;17;15;8
33948;PMS7003;20229;49.856;19.030;2023-11-19T01:00:38;17;14;8
33948;PMS7003;20229;49.856;19.030;2023-11-19T01:05:53;15;12;8
33948;PMS7003;20229;49.856;19.030;2023-11-19T01:11:08;16;15;9
33948;PMS7003;20229;49.856;19.030;2023-11-19T01:16:22;13;12;8
33948;PMS7003;20229;49.856;19.030;2023-11-19T01:21:38;18;15;10
33948;PMS7003;20229;49.856;19.030;2023-11-19T01:26:52;17;15;9
33948;PMS7003;20229;49.856;19.030;2023-11-19T01:32:07;18;15;11
33948;PMS7003;20229;49.856;19.030;2023-11-19T01:37:21;20;16;9
33948;PMS7003;20229;49.856;19.030;2023-11-19T01:42:37;16;15;8
33948;PMS7003;20229;49.856;19.030;2023-11-19T01:47:52;17;14;10
33948;PMS7003;20229;49.856;19.030;2023-11-19T01:53:06;18;15;9
33948;PMS7003;20229;49.856;19.030;2023-11-19T01:58:20;21;18;12
33948;PMS7003;20229;49.856;19.030;2023-11-19T02:03:37;31;24;15
33948;PMS7003;20229;49.856;19.030;2023-11-19T02:08:51;29;25;16
33948;PMS7003;20229;49.856;19.030;2023-11-19T02:14:05;28;25;15
33948;PMS7003;20229;49.856;19.030;2023-11-19T02:19:20;27;23;14
33948;PMS7003;20229;49.856;19.030;2023-11-19T02:24:34;21;17;11
33948;PMS7003;20229;49.856;19.030;2023-11-19T02:29:48;19;17;10
33948;PMS7003;20229;49.856;19.030;2023-11-19T02:35:03;18;16;11
33948;PMS7003;20229;49.856;19.030;2023-11-19T02:40:19;17;16;9
33948;PMS7003;20229;49.856;19.030;2023-11-19T02:45:32;16;15;9
33948;PMS7003;20229;49.856;19.030;2023-11-19T02:50:46;18;15;9
33948;PMS7003;20229;49.856;19.030;2023-11-19T02:56:03;14;14;9
33948;PMS7003;20229;49.856;19.030;2023-11-19T03:01:56;18;15;9
33948;PMS7003;20229;49.856;19.030;2023-11-19T03:07:14;18;15;8
33948;PMS7003;20229;49.856;19.030;2023-11-19T03:12:27;22;20;12
33948;PMS7003;20229;49.856;19.030;2023-11-19T03:17:41;17;16;9
33948;PMS7003;20229;49.856;19.030;2023-11-19T03:22:56;21;19;11
33948;PMS7003;20229;49.856;19.030;2023-11-19T03:28:11;23;21;13
33948;PMS7003;20229;49.856;19.030;2023-11-19T03:33:25;21;17;11
33948;PMS7003;20229;49.856;19.030;2023-11-19T03:38:41;22;18;13
33948;PMS7003;20229;49.856;19.030;2023-11-19T03:43:56;21;18;12
33948;PMS7003;20229;49.856;19.030;2023-11-19T03:49:11;23;20;13
33948;PMS7003;20229;49.856;19.030;2023-11-19T03:54:25;20;17;10
33948;PMS7003;20229;49.856;19.030;2023-11-19T03:59:41;25;21;13
33948;PMS7003;20229;49.856;19.030;2023-11-19T04:04:55;24;20;12
33948;PMS7003;20229;49.856;19.030;2023-11-19T04:10:10;25;22;13
33948;PMS7003;20229;49.856;19.030;2023-11-19T04:15:26;25;23;15
33948;PMS7003;20229;49.856;19.030;2023-11-19T04:20:40;24;20;13
33948;PMS7003;20229;49.856;19.030;2023-11-19T04:25:55;24;19;11
33948;PMS7003;20229;49.856;19.030;2023-11-19T04:31:10;24;20;12
33948;PMS7003;20229;49.856;19.030;2023-11-19T04:36:24;24;20;11
33948;PMS7003;20229;49.856;19.030;2023-11-19T04:47:08;14;13;8
33948;PMS7003;20229;49.856;19.030;2023-11-19T04:52:24;14;12;7
33948;PMS7003;20229;49.856;19.030;2023-11-19T04:57:38;12;9;6
33948;PMS7003;20229;49.856;19.030;2023-11-19T05:02:52;15;14;8
33948;PMS7003;20229;49.856;19.030;2023-11-19T05:08:06;16;14;9
33948;PMS7003;20229;49.856;19.030;2023-11-19T05:13:21;19;15;9
33948;PMS7003;20229;49.856;19.030;2023-11-19T05:18:36;8;8;5
33948;PMS7003;20229;49.856;19.030;2023-11-19T05:23:50;10;8;4
33948;PMS7003;20229;49.856;19.030;2023-11-19T05:29:04;11;9;5
33948;PMS7003;20229;49.856;19.030;2023-11-19T05:34:18;9;8;5
33948;PMS7003;20229;49.856;19.030;2023-11-19T05:39:33;9;8;5
33948;PMS7003;20229;49.856;19.030;2023-11-19T05:44:47;9;8;5
33948;PMS7003;20229;49.856;19.030;2023-11-19T05:50:04;11;9;6
33948;PMS7003;20229;49.856;19.030;2023-11-19T05:55:20;10;8;4
33948;PMS7003;20229;49.856;19.030;2023-11-19T06:00:38;9;8;5
33948;PMS7003;20229;49.856;19.030;2023-11-19T06:05:53;12;10;6
33948;PMS7003;20229;49.856;19.030;2023-11-19T06:11:11;10;7;5
33948;PMS7003;20229;49.856;19.030;2023-11-19T06:16:34;9;7;5
33948;PMS7003;20229;49.856;19.030;2023-11-19T06:21:50;11;9;4
33948;PMS7003;20229;49.856;19.030;2023-11-19T06:27:04;9;8;5
33948;PMS7003;20229;49.856;19.030;2023-11-19T06:32:18;11;8;4
33948;PMS7003;20229;49.856;19.030;2023-11-19T06:37:32;11;9;5
33948;PMS7003;20229;49.856;19.030;2023-11-19T06:42:46;9;8;6
33948;PMS7003;20229;49.856;19.030;2023-11-19T06:48:00;12;10;7
33948;PMS7003;20229;49.856;19.030;2023-11-19T06:53:19;12;9;6
33948;PMS7003;20229;49.856;19.030;2023-11-19T06:58:35;10;9;5
33948;PMS7003;20229;49.856;19.030;2023-11-19T07:03:50;11;10;5
33948;PMS7003;20229;49.856;19.030;2023-11-19T07:09:04;9;8;5
33948;PMS7003;20229;49.856;19.030;2023-11-19T07:14:27;9;8;6
33948;PMS7003;20229;49.856;19.030;2023-11-19T07:19:43;12;10;5
33948;PMS7003;20229;49.856;19.030;2023-11-19T07:24:57;13;12;8
33948;PMS7003;20229;49.856;19.030;2023-11-19T07:30:11;11;8;5
33948;PMS7003;20229;49.856;19.030;2023-11-19T07:35:25;12;11;7
33948;PMS7003;20229;49.856;19.030;2023-11-19T07:40:39;14;11;7
33948;PMS7003;20229;49.856;19.030;2023-11-19T07:45:53;11;8;5
33948;PMS7003;20229;49.856;19.030;2023-11-19T07:51:08;17;14;9
33948;PMS7003;20229;49.856;19.030;2023-11-19T07:56:25;13;11;6
33948;PMS7003;20229;49.856;19.030;2023-11-19T08:01:39;11;9;6
33948;PMS7003;20229;49.856;19.030;2023-11-19T08:06:53;10;8;6
33948;PMS7003;20229;49.856;19.030;2023-11-19T08:12:07;9;8;5
33948;PMS7003;20229;49.856;19.030;2023-11-19T08:17:22;11;8;4
33948;PMS7003;20229;49.856;19.030;2023-11-19T08:22:37;9;7;4
33948;PMS7003;20229;49.856;19.030;2023-11-19T08:27:52;8;7;5
33948;PMS7003;20229;49.856;19.030;2023-11-19T08:33:06;9;8;5
33948;PMS7003;20229;49.856;19.030;2023-11-19T08:38:21;12;9;5
33948;PMS7003;20229;49.856;19.030;2023-11-19T08:43:35;7;6;4
33948;PMS7003;20229;49.856;19.030;2023-11-19T08:48:49;9;6;5
33948;PMS7003;20229;49.856;19.030;2023-11-19T08:54:03;10;7;5
33948;PMS7003;20229;49.856;19.030;2023-11-19T08:59:20;8;8;4
33948;PMS7003;20229;49.856;19.030;2023-11-19T09:04:33;10;7;5
33948;PMS7003;20229;49.856;19.030;2023-11-19T09:09:49;22;20;12
33948;PMS7003;20229;49.856;19.030;2023-11-19T09:15:03;23;21;13
33948;PMS7003;20229;49.856;19.030;2023-11-19T09:20:17;8;8;5
33948;PMS7003;20229;49.856;19.030;2023-11-19T09:25:31;8;7;4
33948;PMS7003;20229;49.856;19.030;2023-11-19T09:30:45;22;19;12
33948;PMS7003;20229;49.856;19.030;2023-11-19T09:35:59;9;8;6
33948;PMS7003;20229;49.856;19.030;2023-11-19T09:41:13;9;8;5
33948;PMS7003;20229;49.856;19.030;2023-11-19T09:46:27;11;9;5
33948;PMS7003;20229;49.856;19.030;2023-11-19T09:51:43;12;11;7
33948;PMS7003;20229;49.856;19.030;2023-11-19T09:56:57;9;8;5
33948;PMS7003;20229;49.856;19.030;2023-11-19T10:02:16;9;8;6
33948;PMS7003;20229;49.856;19.030;2023-11-19T10:08:18;5;5;3
33948;PMS7003;20229;49.856;19.030;2023-11-19T10:13:44;5;5;3
33948;PMS7003;20229;49.856;19.030;2023-11-19T10:19:01;12;10;5
33948;PMS7003;20229;49.856;19.030;2023-11-19T10:24:16;21;15;8
33948;PMS7003;20229;49.856;19.030;2023-11-19T10:29:37;11;7;4
33948;PMS7003;20229;49.856;19.030;2023-11-19T10:40:20;20;18;12
33948;PMS7003;20229;49.856;19.030;2023-11-19T10:45:35;11;10;7
33948;PMS7003;20229;49.856;19.030;2023-11-19T10:50:53;7;7;4
33948;PMS7003;20229;49.856;19.030;2023-11-19T10:56:11;11;9;5
33948;PMS7003;20229;49.856;19.030;2023-11-19T11:01:34;9;9;6
33948;PMS7003;20229;49.856;19.030;2023-11-19T11:06:54;6;5;2
33948;PMS7003;20229;49.856;19.030;2023-11-19T11:12:11;3;3;2
33948;PMS7003;20229;49.856;19.030;2023-11-19T11:17:26;3;3;2
33948;PMS7003;20229;49.856;19.030;2023-11-19T11:39:28;7;6;3
33948;PMS7003;20229;49.856;19.030;2023-11-19T11:50:10;7;6;4
33948;PMS7003;20229;49.856;19.030;2023-11-19T11:55:26;36;29;18
33948;PMS7003;20229;49.856;19.030;2023-11-19T12:00:46;110;99;58
33948;PMS7003;20229;49.856;19.030;2023-11-19T12:06:04;71;62;37
33948;PMS7003;20229;49.856;19.030;2023-11-19T12:11:18;80;68;38
33948;PMS7003;20229;49.856;19.030;2023-11-19T12:16:34;177;153;77
33948;PMS7003;20229;49.856;19.030;2023-11-19T12:21:52;20;17;12
33948;PMS7003;20229;49.856;19.030;2023-11-19T12:27:07;68;57;30
33948;PMS7003;20229;49.856;19.030;2023-11-19T12:32:22;23;20;11
33948;PMS7003;20229;49.856;19.030;2023-11-19T12:43:01;15;15;9
33948;PMS7003;20229;49.856;19.030;2023-11-19T12:48:15;22;18;11
33948;PMS7003;20229;49.856;19.030;2023-11-19T12:53:29;25;22;15
33948;PMS7003;20229;49.856;19.030;2023-11-19T12:58:53;27;22;15
33948;PMS7003;20229;49.856;19.030;2023-11-19T13:09:32;9;9;6
33948;PMS7003;20229;49.856;19.030;2023-11-19T13:14:50;13;11;7
33948;PMS7003;20229;49.856;19.030;2023-11-19T13:20:05;8;8;4
33948;PMS7003;20229;49.856;19.030;2023-11-19T13:25:20;10;7;5
33948;PMS7003;20229;49.856;19.030;2023-11-19T13:30:34;7;7;4
33948;PMS7003;20229;49.856;19.030;2023-11-19T13:35:51;6;5;3
33948;PMS7003;20229;49.856;19.030;2023-11-19T13:41:05;10;8;5
33948;PMS7003;20229;49.856;19.030;2023-11-19T13:46:19;15;13;8
33948;PMS7003;20229;49.856;19.030;2023-11-19T13:51:33;15;14;9
33948;PMS7003;20229;49.856;19.030;2023-11-19T13:56:47;13;12;8
33948;PMS7003;20229;49.856;19.030;2023-11-19T14:02:01;13;13;9
33948;PMS7003;20229;49.856;19.030;2023-11-19T14:07:16;9;8;5
33948;PMS7003;20229;49.856;19.030;2023-11-19T14:12:30;6;5;3
33948;PMS7003;20229;49.856;19.030;2023-11-19T14:17:45;4;3;2
33948;PMS7003;20229;49.856;19.030;2023-11-19T14:22:59;6;3;3
33948;PMS7003;20229;49.856;19.030;2023-11-19T14:28:13;4;4;3
33948;PMS7003;20229;49.856;19.030;2023-11-19T14:33:27;3;3;1
33948;PMS7003;20229;49.856;19.030;2023-11-19T14:38:42;3;3;2
33948;PMS7003;20229;49.856;19.030;2023-11-19T14:43:57;3;3;1
33948;PMS7003;20229;49.856;19.030;2023-11-19T14:49:11;3;3;1
33948;PMS7003;20229;49.856;19.030;2023-11-19T14:54:27;3;3;1
33948;PMS7003;20229;49.856;19.030;2023-11-19T14:59:41;4;3;1
33948;PMS7003;20229;49.856;19.030;2023-11-19T15:04:55;30;24;15
33948;PMS7003;20229;49.856;19.030;2023-11-19T15:10:09;15;12;8
33948;PMS7003;20229;49.856;19.030;2023-11-19T15:15:25;26;23;15
33948;PMS7003;20229;49.856;19.030;2023-11-19T15:20:39;10;9;6
33948;PMS7003;20229;49.856;19.030;2023-11-19T15:25:53;12;11;8
33948;PMS7003;20229;49.856;19.030;2023-11-19T15:31:08;10;8;5
33948;PMS7003;20229;49.856;19.030;2023-11-19T15:36:23;9;8;6
33948;PMS7003;20229;49.856;19.030;2023-11-19T15:41:37;6;6;4
33948;PMS7003;20229;49.856;19.030;2023-11-19T15:46:52;14;11;9
33948;PMS7003;20229;49.856;19.030;2023-11-19T15:52:07;20;18;13
33948;PMS7003;20229;49.856;19.030;2023-11-19T15:57:22;13;13;9
33948;PMS7003;20229;49.856;19.030;2023-11-19T16:02:36;7;5;3
33948;PMS7003;20229;49.856;19.030;2023-11-19T16:07:50;6;6;4
33948;PMS7003;20229;49.856;19.030;2023-11-19T16:13:04;5;5;3
33948;PMS7003;20229;49.856;19.030;2023-11-19T16:18:21;7;5;4
33948;PMS7003;20229;49.856;19.030;2023-11-19T16:23:35;5;5;4
33948;PMS7003;20229;49.856;19.030;2023-11-19T16:28:49;7;7;5
33948;PMS7003;20229;49.856;19.030;2023-11-19T16:34:03;5;5;3
33948;PMS7003;20229;49.856;19.030;2023-11-19T16:39:21;9;8;5
33948;PMS7003;20229;49.856;19.030;2023-11-19T16:44:35;10;9;6
33948;PMS7003;20229;49.856;19.030;2023-11-19T16:49:51;8;8;5
33948;PMS7003;20229;49.856;19.030;2023-11-19T16:55:05;16;14;10
33948;PMS7003;20229;49.856;19.030;2023-11-19T17:00:24;10;9;7
33948;PMS7003;20229;49.856;19.030;2023-11-19T17:05:39;6;5;3
33948;PMS7003;20229;49.856;19.030;2023-11-19T17:10:54;18;17;12
33948;PMS7003;20229;49.856;19.030;2023-11-19T17:16:09;6;5;4
33948;PMS7003;20229;49.856;19.030;2023-11-19T17:21:23;5;4;3
33948;PMS7003;20229;49.856;19.030;2023-11-19T17:26:37;6;4;3
33948;PMS7003;20229;49.856;19.030;2023-11-19T17:31:51;4;3;2
33948;PMS7003;20229;49.856;19.030;2023-11-19T17:37:05;5;4;3
33948;PMS7003;20229;49.856;19.030;2023-11-19T17:42:20;4;4;2
33948;PMS7003;20229;49.856;19.030;2023-11-19T17:47:36;4;3;2
33948;PMS7003;20229;49.856;19.030;2023-11-19T17:52:51;3;3;1
33948;PMS7003;20229;49.856;19.030;2023-11-19T17:58:05;4;3;2
33948;PMS7003;20229;49.856;19.030;2023-11-19T18:03:20;12;10;7
33948;PMS7003;20229;49.856;19.030;2023-11-19T18:08:35;9;7;5
33948;PMS7003;20229;49.856;19.030;2023-11-19T18:13:49;5;4;3
33948;PMS7003;20229;49.856;19.030;2023-11-19T18:19:03;6;6;4
33948;PMS7003;20229;49.856;19.030;2023-11-19T18:24:18;7;6;4
33948;PMS7003;20229;49.856;19.030;2023-11-19T18:29:32;10;8;5
33948;PMS7003;20229;49.856;19.030;2023-11-19T18:34:50;5;4;3
33948;PMS7003;20229;49.856;19.030;2023-11-19T18:40:05;9;8;5
33948;PMS7003;20229;49.856;19.030;2023-11-19T18:45:24;5;4;3
33948;PMS7003;20229;49.856;19.030;2023-11-19T18:50:39;10;9;6
33948;PMS7003;20229;49.856;19.030;2023-11-19T18:55:54;6;6;4
33948;PMS7003;20229;49.856;19.030;2023-11-19T19:01:08;7;6;3
33948;PMS7003;20229;49.856;19.030;2023-11-19T19:06:22;6;6;3
33948;PMS7003;20229;49.856;19.030;2023-11-19T19:11:36;4;3;2
33948;PMS7003;20229;49.856;19.030;2023-11-19T19:16:50;5;5;3
33948;PMS7003;20229;49.856;19.030;2023-11-19T19:22:04;6;5;3
33948;PMS7003;20229;49.856;19.030;2023-11-19T19:27:18;5;4;2
33948;PMS7003;20229;49.856;19.030;2023-11-19T19:32:32;5;4;3
33948;PMS7003;20229;49.856;19.030;2023-11-19T19:37:48;4;4;2
33948;PMS7003;20229;49.856;19.030;2023-11-19T19:43:02;5;5;3
33948;PMS7003;20229;49.856;19.030;2023-11-19T19:48:17;5;4;2
33948;PMS7003;20229;49.856;19.030;2023-11-19T19:53:31;6;3;2
33948;PMS7003;20229;49.856;19.030;2023-11-19T19:58:46;5;5;3
33948;PMS7003;20229;49.856;19.030;2023-11-19T20:04:00;5;4;2
33948;PMS7003;20229;49.856;19.030;2023-11-19T20:09:16;5;4;2
33948;PMS7003;20229;49.856;19.030;2023-11-19T20:14:30;6;4;3
33948;PMS7003;20229;49.856;19.030;2023-11-19T20:19:45;7;6;3
33948;PMS7003;20229;49.856;19.030;2023-11-19T20:24:59;6;4;2
33948;PMS7003;20229;49.856;19.030;2023-11-19T20:30:13;4;3;1
33948;PMS7003;20229;49.856;19.030;2023-11-19T20:35:28;4;3;1
33948;PMS7003;20229;49.856;19.030;2023-11-19T20:40:42;3;2;1
33948;PMS7003;20229;49.856;19.030;2023-11-19T20:45:55;3;2;1
33948;PMS7003;20229;49.856;19.030;2023-11-19T20:51:09;5;4;1
33948;PMS7003;20229;49.856;19.030;2023-11-19T20:56:23;5;5;3
33948;PMS7003;20229;49.856;19.030;2023-11-19T21:01:38;2;2;1
33948;PMS7003;20229;49.856;19.030;2023-11-19T21:06:52;3;3;2
33948;PMS7003;20229;49.856;19.030;2023-11-19T21:12:06;5;4;2
33948;PMS7003;20229;49.856;19.030;2023-11-19T21:17:23;5;5;3
33948;PMS7003;20229;49.856;19.030;2023-11-19T21:22:37;4;3;2
33948;PMS7003;20229;49.856;19.030;2023-11-19T21:27:51;6;4;2
33948;PMS7003;20229;49.856;19.030;2023-11-19T21:33:06;5;3;2
33948;PMS7003;20229;49.856;19.030;2023-11-19T21:38:25;5;4;3
33948;PMS7003;20229;49.856;19.030;2023-11-19T21:43:41;4;3;2
33948;PMS7003;20229;49.856;19.030;2023-11-19T21:48:54;4;4;2
33948;PMS7003;20229;49.856;19.030;2023-11-19T21:54:08;4;3;2
33948;PMS7003;20229;49.856;19.030;2023-11-19T21:59:22;3;3;1
33948;PMS7003;20229;49.856;19.030;2023-11-19T22:09:57;4;3;2
33948;PMS7003;20229;49.856;19.030;2023-11-19T22:15:11;3;3;2
33948;PMS7003;20229;49.856;19.030;2023-11-19T22:20:25;5;4;2
33948;PMS7003;20229;49.856;19.030;2023-11-19T22:25:41;2;2;1
33948;PMS7003;20229;49.856;19.030;2023-11-19T22:30:56;3;2;2
33948;PMS7003;20229;49.856;19.030;2023-11-19T22:36:10;3;3;2
33948;PMS7003;20229;49.856;19.030;2023-11-19T22:41:24;4;3;1
33948;PMS7003;20229;49.856;19.030;2023-11-19T22:46:38;4;3;2
33948;PMS7003;20229;49.856;19.030;2023-11-19T22:51:52;3;3;2
33948;PMS7003;20229;49.856;19.030;2023-11-19T22:57:05;3;3;1
33948;PMS7003;20229;49.856;19.030;2023-11-19T23:02:20;3;3;1
33948;PMS7003;20229;49.856;19.030;2023-11-19T23:07:37;6;3;2
33948;PMS7003;20229;49.856;19.030;2023-11-19T23:12:51;4;3;1
33948;PMS7003;20229;49.856;19.030;2023-11-19T23:18:05;3;2;1
33948;PMS7003;20229;49.856;19.030;2023-11-19T23:23:19;4;4;1
33948;PMS7003;20229;49.856;19.030;2023-11-19T23:28:33;3;3;1
33948;PMS7003;20229;49.856;19.030;2023-11-19T23:33:48;2;1;1
33948;PMS7003;20229;49.856;19.030;2023-11-19T23:39:04;3;3;1
33948;PMS7003;20229;49.856;19.030;2023-11-19T23:44:19;2;2;2
33948;PMS7003;20229;49.856;19.030;2023-11-19T23:49:34;2;2;1
33948;PMS7003;20229;49.856;19.030;2023-11-19T23:54:47;3;2;1
